createdAt,value
2022-08-26T00:02:08.030Z,15.98
2022-08-26T00:04:36.886Z,16.08
2022-08-26T00:07:06.278Z,16.14
2022-08-26T00:09:39.051Z,16.20
2022-08-26T00:12:12.398Z,16.20
2022-08-26T00:14:41.453Z,16.20
2022-08-26T00:17:10.587Z,16.06
2022-08-26T00:19:50.854Z,16.15
2022-08-26T00:22:21.765Z,16.22
2022-08-26T00:24:50.509Z,16.12
2022-08-26T00:27:19.474Z,16.09
2022-08-26T00:29:49.524Z,16.22
2022-08-26T00:32:19.345Z,16.15
2022-08-26T00:34:48.316Z,16.15
2022-08-26T00:37:17.284Z,16.20
2022-08-26T00:39:46.203Z,16.06
2022-08-26T00:42:15.003Z,16.20
2022-08-26T00:44:44.586Z,16.09
2022-08-26T00:47:31.041Z,16.04
2022-08-26T00:50:03.644Z,16.14
2022-08-26T00:52:32.757Z,16.17
2022-08-26T00:55:14.645Z,16.17
2022-08-26T00:57:51.294Z,16.24
2022-08-26T01:00:25.847Z,16.26
2022-08-26T01:02:56.807Z,16.37
2022-08-26T01:05:26.496Z,16.16
2022-08-26T01:07:55.085Z,16.53
2022-08-26T01:10:27.803Z,16.44
2022-08-26T01:13:03.784Z,16.53
2022-08-26T01:15:36.547Z,16.55
2022-08-26T01:18:06.329Z,16.70
2022-08-26T01:20:58.828Z,16.73
2022-08-26T01:23:39.102Z,16.70
2022-08-26T01:26:19.447Z,16.81
2022-08-26T01:28:51.955Z,16.75
2022-08-26T01:31:29.221Z,16.71
2022-08-26T01:34:07.225Z,16.79
2022-08-26T01:36:39.659Z,16.94
2022-08-26T01:39:09.242Z,16.73
2022-08-26T01:41:42.948Z,17.06
2022-08-26T01:44:19.698Z,16.78
2022-08-26T01:46:52.015Z,17.41
2022-08-26T01:49:22.642Z,18.11
2022-08-26T01:51:58.295Z,18.38
2022-08-26T01:54:27.365Z,18.85
2022-08-26T01:56:56.476Z,19.13
2022-08-26T01:59:26.680Z,19.29
2022-08-26T02:01:55.257Z,19.86
2022-08-26T02:04:34.566Z,20.16
2022-08-26T02:07:08.952Z,20.41
2022-08-26T02:09:41.842Z,20.54
2022-08-26T02:12:12.925Z,20.66
2022-08-26T02:14:51.282Z,20.75
2022-08-26T02:17:26.756Z,20.73
2022-08-26T02:19:57.339Z,20.61
2022-08-26T02:22:28.651Z,20.82
2022-08-26T02:25:00.276Z,20.69
2022-08-26T02:27:33.363Z,21.04
2022-08-26T02:30:10.399Z,20.96
2022-08-26T02:32:41.582Z,21.21
2022-08-26T02:35:13.400Z,21.06
2022-08-26T02:37:46.685Z,20.96
2022-08-26T02:40:25.796Z,20.97
2022-08-26T02:42:56.926Z,21.11
2022-08-26T02:45:28.291Z,21.10
2022-08-26T02:47:59.608Z,20.70
2022-08-26T02:50:28.430Z,21.11
2022-08-26T02:52:57.745Z,20.85
2022-08-26T02:55:28.041Z,20.91
2022-08-26T02:57:57.889Z,20.93
2022-08-26T03:00:28.174Z,20.95
2022-08-26T03:02:57.271Z,20.88
2022-08-26T03:05:26.203Z,20.98
2022-08-26T03:07:54.983Z,20.96
2022-08-26T03:10:23.708Z,21.09
2022-08-26T03:12:54.705Z,21.13
2022-08-26T03:15:23.162Z,21.18
2022-08-26T03:17:51.707Z,21.23
2022-08-26T03:20:20.567Z,21.72
2022-08-26T03:22:52.112Z,21.78
2022-08-26T03:25:22.855Z,21.73
2022-08-26T03:27:53.740Z,21.88
2022-08-26T03:30:44.931Z,21.93
2022-08-26T03:33:15.929Z,22.06
2022-08-26T03:35:45.895Z,21.98
2022-08-26T03:38:15.555Z,22.19
2022-08-26T03:40:44.629Z,22.28
2022-08-26T03:43:15.012Z,22.30
2022-08-26T03:45:44.275Z,22.28
2022-08-26T03:48:14.444Z,22.39
2022-08-26T03:50:43.544Z,22.64
2022-08-26T03:53:13.470Z,22.72
2022-08-26T03:55:43.204Z,22.97
2022-08-26T03:58:12.343Z,23.05
2022-08-26T04:00:40.732Z,22.95
2022-08-26T04:03:10.413Z,22.89
2022-08-26T04:05:39.165Z,22.97
2022-08-26T04:08:08.468Z,23.18
2022-08-26T04:10:39.166Z,23.40
2022-08-26T04:13:08.016Z,23.32
2022-08-26T04:15:36.667Z,23.42
2022-08-26T04:18:05.441Z,23.73
2022-08-26T04:20:34.293Z,23.85
2022-08-26T04:23:03.028Z,23.71
2022-08-26T04:25:34.714Z,23.27
2022-08-26T04:28:04.663Z,23.47
2022-08-26T04:30:33.346Z,23.55
2022-08-26T04:33:12.921Z,23.37
2022-08-26T04:35:43.166Z,23.88
2022-08-26T04:38:14.273Z,23.87
2022-08-26T04:40:47.398Z,23.75
2022-08-26T04:43:16.202Z,23.81
2022-08-26T04:45:44.895Z,23.89
2022-08-26T04:48:16.938Z,23.84
2022-08-26T04:50:49.636Z,24.01
2022-08-26T04:53:18.390Z,23.87
2022-08-26T04:55:48.467Z,23.94
2022-08-26T04:58:19.288Z,24.16
2022-08-26T05:00:49.963Z,24.25
2022-08-26T05:03:20.133Z,24.20
2022-08-26T05:05:52.963Z,24.01
2022-08-26T05:08:23.525Z,24.06
2022-08-26T05:10:57.762Z,23.97
2022-08-26T05:13:28.749Z,24.02
2022-08-26T05:15:59.146Z,23.99
2022-08-26T05:18:31.045Z,24.27
2022-08-26T05:20:59.723Z,24.29
2022-08-26T05:23:29.589Z,24.27
2022-08-26T05:26:00.366Z,24.65
2022-08-26T05:28:30.807Z,24.65
2022-08-26T05:30:59.452Z,24.72
2022-08-26T05:33:28.503Z,24.63
2022-08-26T05:35:57.134Z,24.85
2022-08-26T05:38:25.724Z,24.87
2022-08-26T05:40:59.677Z,24.71
2022-08-26T05:43:28.393Z,24.57
2022-08-26T05:45:58.237Z,24.25
2022-08-26T05:48:27.556Z,24.42
2022-08-26T05:50:56.899Z,24.78
2022-08-26T05:53:26.307Z,24.96
2022-08-26T05:55:58.153Z,25.08
2022-08-26T05:58:28.356Z,25.03
2022-08-26T06:01:11.163Z,25.28
2022-08-26T06:03:43.125Z,25.32
2022-08-26T06:06:15.000Z,25.14
2022-08-26T06:08:49.043Z,25.11
2022-08-26T06:11:20.845Z,25.02
2022-08-26T06:13:49.329Z,25.00
2022-08-26T06:16:20.223Z,25.24
2022-08-26T06:18:51.547Z,25.20
2022-08-26T06:21:28.724Z,25.17
2022-08-26T06:24:21.873Z,25.59
2022-08-26T06:26:58.544Z,25.83
2022-08-26T06:29:28.053Z,25.50
2022-08-26T06:31:58.642Z,25.35
2022-08-26T06:34:32.032Z,25.31
2022-08-26T06:37:06.762Z,25.63
2022-08-26T06:39:35.745Z,25.58
2022-08-26T06:42:09.290Z,25.73
2022-08-26T06:44:40.994Z,25.89
2022-08-26T06:47:09.747Z,26.00
2022-08-26T06:49:38.404Z,25.90
2022-08-26T06:52:08.327Z,26.22
2022-08-26T06:54:38.758Z,26.49
2022-08-26T06:57:08.044Z,26.55
2022-08-26T06:59:36.994Z,26.41
2022-08-26T07:02:06.757Z,26.37
2022-08-26T07:04:37.131Z,26.54
2022-08-26T07:07:06.017Z,26.51
2022-08-26T07:09:38.253Z,26.66
2022-08-26T07:12:07.442Z,26.44
2022-08-26T07:14:36.434Z,26.37
2022-08-26T07:17:07.358Z,26.31
2022-08-26T07:19:38.697Z,26.30
2022-08-26T07:22:08.720Z,26.32
2022-08-26T07:24:42.664Z,26.52
2022-08-26T07:27:15.741Z,26.72
2022-08-26T07:29:45.450Z,26.89
2022-08-26T07:32:15.985Z,26.85
2022-08-26T07:34:44.698Z,26.88
2022-08-26T07:37:13.272Z,26.76
2022-08-26T07:39:43.146Z,26.76
2022-08-26T07:42:14.834Z,26.89
2022-08-26T07:44:46.177Z,27.27
2022-08-26T07:47:24.660Z,27.30
2022-08-26T07:49:58.433Z,27.45
2022-08-26T07:52:30.217Z,27.23
2022-08-26T07:55:01.302Z,27.37
2022-08-26T07:57:31.267Z,27.38
2022-08-26T08:00:00.350Z,26.99
2022-08-26T08:02:30.198Z,27.00
2022-08-26T08:04:59.312Z,26.98
2022-08-26T08:07:38.785Z,27.06
2022-08-26T08:10:20.846Z,26.99
2022-08-26T08:12:51.156Z,27.30
2022-08-26T08:15:24.889Z,27.45
2022-08-26T08:17:54.762Z,27.54
2022-08-26T08:20:27.194Z,27.50
2022-08-26T08:22:56.840Z,27.52
2022-08-26T08:25:26.354Z,27.53
2022-08-26T08:27:54.814Z,27.44
2022-08-26T08:30:23.744Z,27.40
2022-08-26T08:32:53.398Z,27.48
2022-08-26T08:35:24.366Z,27.60
2022-08-26T08:37:55.573Z,27.45
2022-08-26T08:40:29.358Z,27.32
2022-08-26T08:43:14.512Z,26.97
2022-08-26T08:46:01.194Z,27.02
2022-08-26T08:48:36.404Z,27.19
2022-08-26T08:51:07.400Z,27.28
2022-08-26T08:53:43.195Z,27.21
2022-08-26T08:56:40.824Z,27.12
2022-08-26T08:59:26.591Z,26.94
2022-08-26T09:02:41.012Z,26.99
2022-08-26T09:05:26.085Z,26.97
2022-08-26T09:08:06.500Z,27.01
2022-08-26T09:10:40.951Z,27.02
2022-08-26T09:13:17.025Z,26.94
2022-08-26T09:16:19.024Z,27.05
2022-08-26T09:18:49.003Z,27.15
2022-08-26T09:21:20.049Z,27.26
2022-08-26T09:23:49.748Z,27.17
2022-08-26T09:26:25.972Z,27.36
2022-08-26T09:29:12.164Z,27.16
2022-08-26T09:31:43.533Z,27.19
2022-08-26T09:34:27.442Z,27.18
2022-08-26T09:36:58.944Z,27.15
2022-08-26T09:39:38.045Z,27.15
2022-08-26T09:42:16.726Z,27.20
2022-08-26T09:44:56.303Z,27.14
2022-08-26T09:47:40.596Z,26.93
2022-08-26T09:50:28.854Z,27.15
2022-08-26T09:53:13.407Z,27.13
2022-08-26T09:55:44.684Z,27.12
2022-08-26T09:58:16.451Z,27.15
2022-08-26T10:00:57.998Z,27.05
2022-08-26T10:03:31.724Z,27.02
2022-08-26T10:06:03.684Z,26.89
2022-08-26T10:08:37.101Z,26.94
2022-08-26T10:11:27.493Z,26.88
2022-08-26T10:14:01.572Z,26.73
2022-08-26T10:16:49.643Z,26.77
2022-08-26T10:19:29.274Z,26.65
2022-08-26T10:22:21.720Z,26.50
2022-08-26T10:24:57.068Z,26.49
2022-08-26T10:27:51.235Z,26.35
2022-08-26T10:30:26.574Z,26.33
2022-08-26T10:33:04.538Z,26.27
2022-08-26T10:35:36.260Z,26.19
2022-08-26T10:38:20.730Z,26.14
2022-08-26T10:41:13.102Z,26.27
2022-08-26T10:44:08.482Z,26.22
2022-08-26T10:46:50.134Z,26.34
2022-08-26T10:49:20.384Z,26.17
2022-08-26T10:52:24.393Z,26.23
2022-08-26T10:55:06.835Z,26.31
2022-08-26T10:57:54.704Z,26.03
2022-08-26T11:00:52.709Z,26.12
2022-08-26T11:03:42.212Z,26.09
2022-08-26T11:06:19.690Z,26.03
2022-08-26T11:09:03.524Z,25.97
2022-08-26T11:11:41.537Z,26.01
2022-08-26T11:14:28.442Z,26.01
2022-08-26T11:16:59.373Z,25.80
2022-08-26T11:19:58.872Z,26.02
2022-08-26T11:22:33.491Z,26.00
2022-08-26T11:25:09.565Z,25.76
2022-08-26T11:27:40.896Z,26.04
2022-08-26T11:30:18.662Z,26.03
2022-08-26T11:32:58.821Z,25.69
2022-08-26T11:35:28.232Z,25.83
2022-08-26T11:38:04.386Z,25.69
2022-08-26T11:40:36.069Z,25.73
2022-08-26T11:43:24.804Z,25.68
2022-08-26T11:46:09.579Z,25.57
2022-08-26T11:48:44.067Z,25.60
2022-08-26T11:51:24.688Z,25.67
2022-08-26T11:54:12.816Z,25.52
2022-08-26T11:56:43.752Z,25.50
2022-08-26T11:59:16.338Z,25.54
2022-08-26T12:01:49.658Z,25.40
2022-08-26T12:04:29.300Z,25.40
2022-08-26T12:06:59.579Z,25.44
2022-08-26T12:09:37.938Z,25.23
2022-08-26T12:12:24.906Z,25.27
2022-08-26T12:15:14.443Z,25.27
2022-08-26T12:17:44.712Z,25.20
2022-08-26T12:20:46.594Z,25.14
2022-08-26T12:23:37.923Z,24.96
2022-08-26T12:26:16.379Z,25.04
2022-08-26T12:29:12.646Z,24.82
2022-08-26T12:31:50.442Z,24.94
2022-08-26T12:34:19.631Z,24.85
2022-08-26T12:36:51.636Z,24.83
2022-08-26T12:39:30.569Z,24.86
2022-08-26T12:42:01.860Z,24.78
2022-08-26T12:44:53.707Z,24.80
2022-08-26T12:47:39.015Z,24.72
2022-08-26T12:50:19.022Z,24.69
2022-08-26T12:53:03.519Z,24.64
2022-08-26T12:55:44.434Z,24.45
2022-08-26T12:58:12.982Z,24.54
2022-08-26T13:01:02.635Z,24.47
2022-08-26T13:03:43.949Z,24.45
2022-08-26T13:06:26.512Z,24.35
2022-08-26T13:09:10.344Z,24.28
2022-08-26T13:11:41.872Z,24.21
2022-08-26T13:14:12.040Z,24.20
2022-08-26T13:16:50.313Z,24.09
2022-08-26T13:19:23.555Z,24.05
2022-08-26T13:21:55.536Z,23.98
2022-08-26T13:24:28.326Z,23.81
2022-08-26T13:26:57.152Z,23.73
2022-08-26T13:29:26.215Z,23.74
2022-08-26T13:31:55.334Z,23.69
2022-08-26T13:34:24.886Z,23.61
2022-08-26T13:36:55.507Z,23.42
2022-08-26T13:39:24.462Z,23.38
2022-08-26T13:41:53.655Z,23.48
2022-08-26T13:44:22.519Z,23.29
2022-08-26T13:46:51.155Z,23.20
2022-08-26T13:49:19.976Z,23.17
2022-08-26T13:51:48.693Z,23.00
2022-08-26T13:54:17.407Z,23.02
2022-08-26T13:56:46.301Z,22.67
2022-08-26T13:59:14.893Z,22.63
2022-08-26T14:01:43.820Z,22.48
2022-08-26T14:04:12.730Z,22.26
2022-08-26T14:06:41.325Z,22.14
2022-08-26T14:09:11.501Z,21.96
2022-08-26T14:11:54.144Z,21.92
2022-08-26T14:14:23.605Z,21.49
2022-08-26T14:16:59.558Z,21.51
2022-08-26T14:19:32.184Z,21.38
2022-08-26T14:22:01.505Z,21.22
2022-08-26T14:24:31.166Z,20.87
2022-08-26T14:27:00.202Z,21.01
2022-08-26T14:29:29.377Z,20.76
2022-08-26T14:31:59.452Z,20.41
2022-08-26T14:34:28.185Z,20.48
2022-08-26T14:36:56.590Z,20.35
2022-08-26T14:39:25.110Z,19.97
2022-08-26T14:41:57.141Z,20.07
2022-08-26T14:44:28.967Z,19.90
2022-08-26T14:46:57.771Z,19.74
2022-08-26T14:49:28.060Z,19.53
2022-08-26T14:51:57.018Z,19.41
2022-08-26T14:54:25.646Z,19.49
2022-08-26T14:56:58.421Z,19.32
2022-08-26T14:59:36.455Z,19.23
2022-08-26T15:02:08.004Z,19.13
2022-08-26T15:04:36.574Z,19.10
2022-08-26T15:07:06.290Z,18.93
2022-08-26T15:09:38.140Z,18.83
2022-08-26T15:12:07.214Z,18.69
2022-08-26T15:14:35.836Z,18.53
2022-08-26T15:17:05.381Z,18.48
2022-08-26T15:19:33.984Z,18.51
2022-08-26T15:22:02.630Z,18.26
2022-08-26T15:24:31.115Z,18.30
2022-08-26T15:26:59.907Z,18.17
2022-08-26T15:29:28.449Z,17.86
2022-08-26T15:31:57.640Z,17.85
2022-08-26T15:34:27.120Z,17.90
2022-08-26T15:36:55.979Z,17.92
2022-08-26T15:39:24.984Z,17.61
2022-08-26T15:41:53.465Z,17.69
2022-08-26T15:44:21.945Z,17.50
2022-08-26T15:46:52.516Z,17.67
2022-08-26T15:49:24.348Z,17.67
2022-08-26T15:51:53.359Z,17.52
2022-08-26T15:54:23.610Z,17.52
2022-08-26T15:56:53.811Z,17.45
2022-08-26T15:59:23.262Z,17.57
2022-08-26T16:01:53.194Z,17.57
2022-08-26T16:04:22.261Z,17.59
2022-08-26T16:06:52.601Z,17.55
2022-08-26T16:09:24.478Z,17.55
2022-08-26T16:11:54.902Z,17.36
2022-08-26T16:14:24.374Z,17.22
2022-08-26T16:16:53.053Z,17.59
2022-08-26T16:19:22.154Z,17.59
2022-08-26T16:21:52.201Z,17.60
2022-08-26T16:24:28.424Z,17.64
2022-08-26T16:26:59.339Z,17.61
2022-08-26T16:29:28.320Z,17.79
2022-08-26T16:31:57.001Z,17.71
2022-08-26T16:34:25.733Z,17.74
2022-08-26T16:36:54.472Z,17.77
2022-08-26T16:39:23.201Z,17.78
2022-08-26T16:41:51.963Z,17.82
2022-08-26T16:44:20.679Z,17.79
2022-08-26T16:46:54.572Z,17.82
2022-08-26T16:49:27.601Z,17.67
2022-08-26T16:51:56.240Z,17.47
2022-08-26T16:54:24.986Z,17.57
2022-08-26T16:56:53.322Z,17.50
2022-08-26T16:59:22.581Z,17.27
2022-08-26T17:01:52.174Z,17.23
2022-08-26T17:04:20.895Z,17.05
2022-08-26T17:06:49.992Z,16.75
2022-08-26T17:09:20.859Z,16.83
2022-08-26T17:11:49.720Z,16.67
2022-08-26T17:14:18.740Z,16.33
2022-08-26T17:16:52.037Z,16.52
2022-08-26T17:19:22.405Z,16.38
2022-08-26T17:21:51.035Z,16.34
2022-08-26T17:24:19.923Z,16.39
2022-08-26T17:26:50.019Z,16.44
2022-08-26T17:29:22.252Z,16.41
2022-08-26T17:31:50.915Z,16.27
2022-08-26T17:34:20.027Z,16.24
2022-08-26T17:36:48.736Z,15.87
2022-08-26T17:39:17.603Z,16.05
2022-08-26T17:41:46.276Z,16.25
2022-08-26T17:44:14.750Z,16.17
2022-08-26T17:46:43.364Z,16.28
2022-08-26T17:49:12.127Z,16.13
2022-08-26T17:51:41.562Z,16.13
2022-08-26T17:54:10.270Z,16.16
2022-08-26T17:56:39.043Z,15.97
2022-08-26T17:59:07.639Z,15.95
2022-08-26T18:01:36.773Z,15.92
2022-08-26T18:04:05.484Z,15.92
2022-08-26T18:06:35.675Z,15.97
2022-08-26T18:09:04.665Z,15.57
2022-08-26T18:11:34.216Z,15.75
2022-08-26T18:14:02.754Z,15.81
2022-08-26T18:16:34.753Z,15.80
2022-08-26T18:19:03.943Z,15.81
2022-08-26T18:21:33.050Z,15.78
2022-08-26T18:24:01.972Z,15.73
2022-08-26T18:26:37.007Z,15.70
2022-08-26T18:29:07.496Z,15.71
2022-08-26T18:31:38.233Z,15.59
2022-08-26T18:34:08.911Z,15.73
2022-08-26T18:36:38.000Z,15.56
2022-08-26T18:39:08.781Z,15.52
2022-08-26T18:41:47.124Z,15.55
2022-08-26T18:44:17.394Z,15.47
2022-08-26T18:46:47.092Z,15.39
2022-08-26T18:49:17.329Z,15.20
2022-08-26T18:51:48.316Z,15.31
2022-08-26T18:56:46.613Z,15.41
2022-08-26T18:59:15.615Z,15.43
2022-08-26T19:01:44.745Z,15.42
2022-08-26T19:04:14.771Z,15.46
2022-08-26T19:06:48.316Z,15.50
2022-08-26T19:09:18.692Z,15.43
2022-08-26T19:11:50.577Z,15.49
2022-08-26T19:14:19.975Z,15.38
2022-08-26T19:16:50.599Z,15.51
2022-08-26T19:19:21.237Z,15.49
2022-08-26T19:21:50.065Z,15.48
2022-08-26T19:24:20.233Z,15.42
2022-08-26T19:26:57.582Z,15.45
2022-08-26T19:29:31.655Z,15.48
2022-08-26T19:32:00.498Z,15.26
2022-08-26T19:34:29.044Z,15.39
2022-08-26T19:36:59.343Z,15.25
2022-08-26T19:39:29.123Z,15.36
2022-08-26T19:41:58.182Z,15.45
2022-08-26T19:44:45.833Z,15.43
2022-08-26T19:47:14.843Z,15.37
2022-08-26T19:49:44.020Z,15.44
2022-08-26T19:52:13.667Z,15.49
2022-08-26T19:54:42.209Z,15.50
2022-08-26T19:57:11.725Z,15.41
2022-08-26T19:59:41.019Z,15.51
2022-08-26T20:02:11.280Z,15.80
2022-08-26T20:04:42.761Z,15.89
2022-08-26T20:07:14.196Z,15.86
2022-08-26T20:09:48.059Z,15.90
2022-08-26T20:12:18.151Z,16.03
2022-08-26T20:14:46.880Z,16.13
2022-08-26T20:17:17.793Z,16.22
2022-08-26T20:20:04.918Z,16.19
2022-08-26T20:22:34.298Z,16.20
2022-08-26T20:25:03.506Z,16.34
2022-08-26T20:27:38.394Z,16.15
2022-08-26T20:30:09.759Z,16.33
2022-08-26T20:32:40.268Z,16.43
2022-08-26T20:35:12.605Z,16.51
2022-08-26T20:37:42.235Z,16.61
2022-08-26T20:40:13.054Z,16.50
2022-08-26T20:42:41.770Z,16.70
2022-08-26T20:45:10.673Z,16.75
2022-08-26T20:47:39.222Z,16.73
2022-08-26T20:50:09.276Z,16.73
2022-08-26T20:52:37.767Z,16.71
2022-08-26T20:55:07.321Z,16.78
2022-08-26T20:57:35.733Z,16.62
2022-08-26T21:00:07.029Z,16.77
2022-08-26T21:02:35.524Z,16.65
2022-08-26T21:05:05.004Z,16.80
2022-08-26T21:07:33.804Z,16.78
2022-08-26T21:10:02.874Z,16.65
2022-08-26T21:12:32.236Z,16.68
2022-08-26T21:15:01.349Z,16.61
2022-08-26T21:17:29.971Z,16.52
2022-08-26T21:19:58.642Z,16.45
2022-08-26T21:22:27.051Z,16.58
2022-08-26T21:24:55.624Z,16.52
2022-08-26T21:27:26.316Z,16.48
2022-08-26T21:29:55.620Z,16.54
2022-08-26T21:32:24.583Z,16.32
2022-08-26T21:34:57.723Z,16.51
2022-08-26T21:37:28.610Z,16.50
2022-08-26T21:39:59.404Z,16.58
2022-08-26T21:42:28.549Z,16.46
2022-08-26T21:44:57.096Z,16.53
2022-08-26T21:47:25.653Z,16.56
2022-08-26T21:49:57.191Z,16.55
2022-08-26T21:52:27.025Z,16.40
2022-08-26T21:55:03.140Z,16.39
2022-08-26T21:57:37.675Z,16.31
2022-08-26T22:00:13.778Z,16.44
2022-08-26T22:02:42.436Z,16.30
2022-08-26T22:05:11.623Z,16.39
2022-08-26T22:07:40.278Z,16.56
2022-08-26T22:10:09.629Z,16.68
2022-08-26T22:12:38.779Z,16.80
2022-08-26T22:15:08.236Z,16.75
2022-08-26T22:17:36.882Z,16.81
2022-08-26T22:20:07.430Z,16.90
2022-08-26T22:22:45.854Z,16.83
2022-08-26T22:25:14.593Z,16.80
2022-08-26T22:27:43.552Z,16.77
2022-08-26T22:30:12.631Z,16.83
2022-08-26T22:32:41.511Z,16.73
2022-08-26T22:35:29.323Z,16.73
2022-08-26T22:37:59.659Z,16.81
2022-08-26T22:40:31.130Z,16.70
2022-08-26T22:43:00.251Z,16.43
2022-08-26T22:45:34.407Z,16.72
2022-08-26T22:48:05.830Z,16.70
2022-08-26T22:50:34.537Z,16.60
2022-08-26T22:53:03.349Z,16.49
2022-08-26T22:55:32.010Z,16.59
2022-08-26T22:58:01.056Z,16.52
2022-08-26T23:00:31.987Z,16.52
2022-08-26T23:03:02.069Z,16.48
2022-08-26T23:05:31.801Z,16.51
2022-08-26T23:08:01.466Z,16.45
2022-08-26T23:10:31.129Z,16.22
2022-08-26T23:12:59.867Z,16.28
2022-08-26T23:15:29.262Z,16.25
2022-08-26T23:17:59.118Z,16.27
2022-08-26T23:20:29.033Z,16.30
2022-08-26T23:23:03.576Z,16.27
2022-08-26T23:25:33.452Z,16.11
2022-08-26T23:28:02.886Z,16.12
2022-08-26T23:30:33.266Z,16.11
2022-08-26T23:33:01.740Z,16.01
2022-08-26T23:35:30.825Z,16.09
2022-08-26T23:37:59.442Z,16.07
2022-08-26T23:40:33.480Z,16.06
2022-08-26T23:43:06.340Z,16.00
2022-08-26T23:45:36.427Z,15.98
2022-08-26T23:48:10.763Z,15.93
2022-08-26T23:50:57.668Z,15.88
2022-08-26T23:53:26.468Z,15.91
2022-08-26T23:55:55.417Z,15.76
2022-08-26T23:58:24.060Z,15.76
